sensor_id;sensor_type;location;lat;lon;timestamp;P1;durP1;ratioP1;P2;durP2;ratioP2
7587;SDS011;3835;48.850;8.938;2024-02-26T00:01:50;14.67;;;13.87;;
7587;SDS011;3835;48.850;8.938;2024-02-26T00:04:18;13.77;;;12.87;;
7587;SDS011;3835;48.850;8.938;2024-02-26T00:06:46;14.10;;;13.20;;
7587;SDS011;3835;48.850;8.938;2024-02-26T00:09:15;12.40;;;11.70;;
7587;SDS011;3835;48.850;8.938;2024-02-26T00:11:42;14.60;;;13.83;;
7587;SDS011;3835;48.850;8.938;2024-02-26T00:14:09;13.27;;;12.57;;
7587;SDS011;3835;48.850;8.938;2024-02-26T00:16:36;14.57;;;13.67;;
7587;SDS011;3835;48.850;8.938;2024-02-26T00:19:05;13.67;;;12.73;;
7587;SDS011;3835;48.850;8.938;2024-02-26T00:21:33;13.73;;;12.93;;
7587;SDS011;3835;48.850;8.938;2024-02-26T00:24:00;12.97;;;12.37;;
7587;SDS011;3835;48.850;8.938;2024-02-26T00:26:27;12.93;;;12.13;;
7587;SDS011;3835;48.850;8.938;2024-02-26T00:28:54;12.57;;;11.90;;
7587;SDS011;3835;48.850;8.938;2024-02-26T00:31:21;12.87;;;12.07;;
7587;SDS011;3835;48.850;8.938;2024-02-26T00:33:48;11.80;;;11.20;;
7587;SDS011;3835;48.850;8.938;2024-02-26T00:36:14;13.43;;;12.73;;
7587;SDS011;3835;48.850;8.938;2024-02-26T00:38:43;12.53;;;11.87;;
7587;SDS011;3835;48.850;8.938;2024-02-26T00:41:11;12.53;;;12.03;;
7587;SDS011;3835;48.850;8.938;2024-02-26T00:43:38;12.13;;;11.53;;
7587;SDS011;3835;48.850;8.938;2024-02-26T00:46:05;12.80;;;12.10;;
7587;SDS011;3835;48.850;8.938;2024-02-26T00:48:32;13.07;;;12.47;;
7587;SDS011;3835;48.850;8.938;2024-02-26T00:50:59;11.70;;;11.10;;
7587;SDS011;3835;48.850;8.938;2024-02-26T00:53:26;11.67;;;11.07;;
7587;SDS011;3835;48.850;8.938;2024-02-26T00:55:55;11.80;;;11.20;;
7587;SDS011;3835;48.850;8.938;2024-02-26T00:58:24;12.50;;;11.80;;
7587;SDS011;3835;48.850;8.938;2024-02-26T01:00:51;12.30;;;11.70;;
7587;SDS011;3835;48.850;8.938;2024-02-26T01:03:18;10.87;;;10.37;;
7587;SDS011;3835;48.850;8.938;2024-02-26T01:05:45;11.03;;;10.50;;
7587;SDS011;3835;48.850;8.938;2024-02-26T01:08:12;11.50;;;10.90;;
7587;SDS011;3835;48.850;8.938;2024-02-26T01:10:38;12.13;;;11.53;;
7587;SDS011;3835;48.850;8.938;2024-02-26T01:13:07;12.23;;;11.63;;
7587;SDS011;3835;48.850;8.938;2024-02-26T01:15:34;12.60;;;11.90;;
7587;SDS011;3835;48.850;8.938;2024-02-26T01:18:01;12.57;;;11.87;;
7587;SDS011;3835;48.850;8.938;2024-02-26T01:20:27;13.07;;;12.27;;
7587;SDS011;3835;48.850;8.938;2024-02-26T01:22:54;11.87;;;11.27;;
7587;SDS011;3835;48.850;8.938;2024-02-26T01:25:21;12.20;;;11.47;;
7587;SDS011;3835;48.850;8.938;2024-02-26T01:27:48;12.43;;;11.63;;
7587;SDS011;3835;48.850;8.938;2024-02-26T01:30:16;12.10;;;11.50;;
7587;SDS011;3835;48.850;8.938;2024-02-26T01:32:43;11.80;;;11.20;;
7587;SDS011;3835;48.850;8.938;2024-02-26T01:35:10;11.80;;;11.20;;
7587;SDS011;3835;48.850;8.938;2024-02-26T01:37:37;12.20;;;11.50;;
7587;SDS011;3835;48.850;8.938;2024-02-26T01:40:05;13.30;;;12.50;;
7587;SDS011;3835;48.850;8.938;2024-02-26T01:42:33;12.23;;;11.53;;
7587;SDS011;3835;48.850;8.938;2024-02-26T01:45:00;12.00;;;11.30;;
7587;SDS011;3835;48.850;8.938;2024-02-26T01:47:28;12.33;;;11.63;;
7587;SDS011;3835;48.850;8.938;2024-02-26T01:49:55;12.60;;;11.93;;
7587;SDS011;3835;48.850;8.938;2024-02-26T01:52:23;13.37;;;12.67;;
7587;SDS011;3835;48.850;8.938;2024-02-26T01:54:50;13.30;;;12.23;;
7587;SDS011;3835;48.850;8.938;2024-02-26T01:57:17;13.07;;;12.17;;
7587;SDS011;3835;48.850;8.938;2024-02-26T01:59:44;13.30;;;12.60;;
7587;SDS011;3835;48.850;8.938;2024-02-26T02:02:11;12.33;;;11.67;;
7587;SDS011;3835;48.850;8.938;2024-02-26T02:04:40;12.37;;;11.77;;
7587;SDS011;3835;48.850;8.938;2024-02-26T02:07:07;13.40;;;12.67;;
7587;SDS011;3835;48.850;8.938;2024-02-26T02:09:34;14.87;;;14.17;;
7587;SDS011;3835;48.850;8.938;2024-02-26T02:12:01;12.77;;;12.10;;
7587;SDS011;3835;48.850;8.938;2024-02-26T02:14:28;11.93;;;11.23;;
7587;SDS011;3835;48.850;8.938;2024-02-26T02:16:55;11.87;;;11.27;;
7587;SDS011;3835;48.850;8.938;2024-02-26T02:19:22;13.00;;;12.30;;
7587;SDS011;3835;48.850;8.938;2024-02-26T02:21:50;12.27;;;11.67;;
7587;SDS011;3835;48.850;8.938;2024-02-26T02:24:17;12.33;;;11.63;;
7587;SDS011;3835;48.850;8.938;2024-02-26T02:26:44;13.03;;;12.23;;
7587;SDS011;3835;48.850;8.938;2024-02-26T02:29:11;12.60;;;12.00;;
7587;SDS011;3835;48.850;8.938;2024-02-26T02:34:09;11.40;;;10.70;;
7587;SDS011;3835;48.850;8.938;2024-02-26T02:36:47;10.93;;;10.43;;
7587;SDS011;3835;48.850;8.938;2024-02-26T02:39:16;10.87;;;10.27;;
7587;SDS011;3835;48.850;8.938;2024-02-26T02:41:46;11.73;;;11.13;;
7587;SDS011;3835;48.850;8.938;2024-02-26T02:44:13;10.27;;;9.77;;
7587;SDS011;3835;48.850;8.938;2024-02-26T02:46:39;11.17;;;10.67;;
7587;SDS011;3835;48.850;8.938;2024-02-26T02:49:08;10.67;;;10.20;;
7587;SDS011;3835;48.850;8.938;2024-02-26T02:51:35;10.80;;;10.30;;
7587;SDS011;3835;48.850;8.938;2024-02-26T02:54:02;11.30;;;10.80;;
7587;SDS011;3835;48.850;8.938;2024-02-26T02:56:31;12.17;;;11.50;;
7587;SDS011;3835;48.850;8.938;2024-02-26T02:58:57;12.43;;;11.73;;
7587;SDS011;3835;48.850;8.938;2024-02-26T03:01:24;11.67;;;11.17;;
7587;SDS011;3835;48.850;8.938;2024-02-26T03:03:51;11.27;;;10.77;;
7587;SDS011;3835;48.850;8.938;2024-02-26T03:06:18;11.37;;;10.87;;
7587;SDS011;3835;48.850;8.938;2024-02-26T03:08:46;11.33;;;10.87;;
7587;SDS011;3835;48.850;8.938;2024-02-26T03:11:13;10.77;;;10.30;;
7587;SDS011;3835;48.850;8.938;2024-02-26T03:13:41;12.13;;;11.63;;
7587;SDS011;3835;48.850;8.938;2024-02-26T03:16:08;12.23;;;11.73;;
7587;SDS011;3835;48.850;8.938;2024-02-26T03:18:35;11.57;;;11.07;;
7587;SDS011;3835;48.850;8.938;2024-02-26T03:21:04;12.90;;;12.30;;
7587;SDS011;3835;48.850;8.938;2024-02-26T03:23:31;12.40;;;11.90;;
7587;SDS011;3835;48.850;8.938;2024-02-26T03:26:01;13.73;;;13.20;;
7587;SDS011;3835;48.850;8.938;2024-02-26T03:28:28;11.60;;;11.10;;
7587;SDS011;3835;48.850;8.938;2024-02-26T03:30:57;11.67;;;11.17;;
7587;SDS011;3835;48.850;8.938;2024-02-26T03:33:24;12.77;;;12.17;;
7587;SDS011;3835;48.850;8.938;2024-02-26T03:35:50;12.30;;;11.80;;
7587;SDS011;3835;48.850;8.938;2024-02-26T03:38:17;11.77;;;11.37;;
7587;SDS011;3835;48.850;8.938;2024-02-26T03:40:44;11.97;;;11.47;;
7587;SDS011;3835;48.850;8.938;2024-02-26T03:43:11;13.07;;;12.57;;
7587;SDS011;3835;48.850;8.938;2024-02-26T03:45:38;11.30;;;10.80;;
7587;SDS011;3835;48.850;8.938;2024-02-26T03:48:06;12.30;;;11.80;;
7587;SDS011;3835;48.850;8.938;2024-02-26T03:50:34;12.27;;;11.67;;
7587;SDS011;3835;48.850;8.938;2024-02-26T03:53:01;12.30;;;11.80;;
7587;SDS011;3835;48.850;8.938;2024-02-26T03:55:27;12.70;;;12.20;;
7587;SDS011;3835;48.850;8.938;2024-02-26T03:57:54;13.87;;;13.30;;
7587;SDS011;3835;48.850;8.938;2024-02-26T04:00:21;12.03;;;11.43;;
7587;SDS011;3835;48.850;8.938;2024-02-26T04:02:48;13.27;;;12.67;;
7587;SDS011;3835;48.850;8.938;2024-02-26T04:05:17;14.20;;;13.60;;
7587;SDS011;3835;48.850;8.938;2024-02-26T04:07:44;14.83;;;14.03;;
7587;SDS011;3835;48.850;8.938;2024-02-26T04:10:11;13.60;;;13.10;;
7587;SDS011;3835;48.850;8.938;2024-02-26T04:12:38;13.47;;;12.87;;
7587;SDS011;3835;48.850;8.938;2024-02-26T04:15:06;12.03;;;11.53;;
7587;SDS011;3835;48.850;8.938;2024-02-26T04:17:34;11.20;;;10.80;;
7587;SDS011;3835;48.850;8.938;2024-02-26T04:20:02;11.90;;;11.40;;
7587;SDS011;3835;48.850;8.938;2024-02-26T04:22:31;12.40;;;11.90;;
7587;SDS011;3835;48.850;8.938;2024-02-26T04:24:58;13.70;;;13.03;;
7587;SDS011;3835;48.850;8.938;2024-02-26T04:27:25;13.87;;;13.27;;
7587;SDS011;3835;48.850;8.938;2024-02-26T04:29:52;15.23;;;14.63;;
7587;SDS011;3835;48.850;8.938;2024-02-26T04:32:19;12.20;;;11.37;;
7587;SDS011;3835;48.850;8.938;2024-02-26T04:34:46;12.40;;;11.90;;
7587;SDS011;3835;48.850;8.938;2024-02-26T04:37:13;12.63;;;12.13;;
7587;SDS011;3835;48.850;8.938;2024-02-26T04:39:41;12.33;;;11.80;;
7587;SDS011;3835;48.850;8.938;2024-02-26T04:42:08;13.03;;;12.27;;
7587;SDS011;3835;48.850;8.938;2024-02-26T04:44:34;12.83;;;12.23;;
7587;SDS011;3835;48.850;8.938;2024-02-26T04:47:01;12.13;;;11.50;;
7587;SDS011;3835;48.850;8.938;2024-02-26T04:49:28;12.60;;;12.03;;
7587;SDS011;3835;48.850;8.938;2024-02-26T04:51:55;11.30;;;10.70;;
7587;SDS011;3835;48.850;8.938;2024-02-26T04:54:22;12.90;;;12.30;;
7587;SDS011;3835;48.850;8.938;2024-02-26T04:56:50;13.60;;;13.00;;
7587;SDS011;3835;48.850;8.938;2024-02-26T04:59:17;12.33;;;11.83;;
7587;SDS011;3835;48.850;8.938;2024-02-26T05:01:44;10.67;;;10.20;;
7587;SDS011;3835;48.850;8.938;2024-02-26T05:04:11;10.70;;;10.20;;
7587;SDS011;3835;48.850;8.938;2024-02-26T05:06:38;10.77;;;10.27;;
7587;SDS011;3835;48.850;8.938;2024-02-26T05:09:05;11.93;;;11.43;;
7587;SDS011;3835;48.850;8.938;2024-02-26T05:11:32;11.67;;;11.17;;
7587;SDS011;3835;48.850;8.938;2024-02-26T05:14:02;13.23;;;12.63;;
7587;SDS011;3835;48.850;8.938;2024-02-26T05:16:29;12.00;;;11.50;;
7587;SDS011;3835;48.850;8.938;2024-02-26T05:18:56;11.53;;;11.03;;
7587;SDS011;3835;48.850;8.938;2024-02-26T05:21:23;12.70;;;12.20;;
7587;SDS011;3835;48.850;8.938;2024-02-26T05:23:50;12.13;;;11.43;;
7587;SDS011;3835;48.850;8.938;2024-02-26T05:26:20;12.33;;;11.63;;
7587;SDS011;3835;48.850;8.938;2024-02-26T05:28:48;13.50;;;12.60;;
7587;SDS011;3835;48.850;8.938;2024-02-26T05:31:17;11.93;;;11.33;;
7587;SDS011;3835;48.850;8.938;2024-02-26T05:33:44;12.13;;;11.43;;
7587;SDS011;3835;48.850;8.938;2024-02-26T05:36:17;14.10;;;13.40;;
7587;SDS011;3835;48.850;8.938;2024-02-26T05:38:44;14.03;;;13.23;;
7587;SDS011;3835;48.850;8.938;2024-02-26T05:41:12;13.97;;;13.17;;
7587;SDS011;3835;48.850;8.938;2024-02-26T05:43:39;13.93;;;13.13;;
7587;SDS011;3835;48.850;8.938;2024-02-26T05:46:05;12.97;;;12.17;;
7587;SDS011;3835;48.850;8.938;2024-02-26T05:48:34;12.87;;;12.27;;
7587;SDS011;3835;48.850;8.938;2024-02-26T05:51:00;12.47;;;11.87;;
7587;SDS011;3835;48.850;8.938;2024-02-26T05:53:28;13.17;;;12.47;;
7587;SDS011;3835;48.850;8.938;2024-02-26T05:55:55;12.57;;;11.93;;
7587;SDS011;3835;48.850;8.938;2024-02-26T05:58:21;12.90;;;12.30;;
7587;SDS011;3835;48.850;8.938;2024-02-26T06:00:48;12.97;;;12.27;;
7587;SDS011;3835;48.850;8.938;2024-02-26T06:03:15;13.13;;;12.53;;
7587;SDS011;3835;48.850;8.938;2024-02-26T06:05:43;11.27;;;10.77;;
7587;SDS011;3835;48.850;8.938;2024-02-26T06:08:10;13.07;;;12.37;;
7587;SDS011;3835;48.850;8.938;2024-02-26T06:10:37;13.33;;;12.53;;
7587;SDS011;3835;48.850;8.938;2024-02-26T06:13:05;11.83;;;11.23;;
7587;SDS011;3835;48.850;8.938;2024-02-26T06:15:32;13.20;;;12.60;;
7587;SDS011;3835;48.850;8.938;2024-02-26T06:17:58;10.80;;;10.30;;
7587;SDS011;3835;48.850;8.938;2024-02-26T06:20:25;12.77;;;12.17;;
7587;SDS011;3835;48.850;8.938;2024-02-26T06:22:54;12.17;;;11.57;;
7587;SDS011;3835;48.850;8.938;2024-02-26T06:25:20;12.07;;;11.57;;
7587;SDS011;3835;48.850;8.938;2024-02-26T06:27:47;12.43;;;11.93;;
7587;SDS011;3835;48.850;8.938;2024-02-26T06:30:15;12.07;;;11.47;;
7587;SDS011;3835;48.850;8.938;2024-02-26T06:32:42;11.73;;;11.23;;
7587;SDS011;3835;48.850;8.938;2024-02-26T06:35:09;10.93;;;10.43;;
7587;SDS011;3835;48.850;8.938;2024-02-26T06:37:36;11.50;;;10.97;;
7587;SDS011;3835;48.850;8.938;2024-02-26T06:40:05;12.53;;;12.03;;
7587;SDS011;3835;48.850;8.938;2024-02-26T06:42:33;11.77;;;11.27;;
7587;SDS011;3835;48.850;8.938;2024-02-26T06:45:00;12.60;;;11.83;;
7587;SDS011;3835;48.850;8.938;2024-02-26T06:47:27;11.57;;;11.07;;
7587;SDS011;3835;48.850;8.938;2024-02-26T06:49:53;12.93;;;12.23;;
7587;SDS011;3835;48.850;8.938;2024-02-26T06:52:23;11.30;;;10.80;;
7587;SDS011;3835;48.850;8.938;2024-02-26T06:54:50;13.00;;;12.30;;
7587;SDS011;3835;48.850;8.938;2024-02-26T06:57:19;11.97;;;11.27;;
7587;SDS011;3835;48.850;8.938;2024-02-26T06:59:46;13.40;;;12.70;;
7587;SDS011;3835;48.850;8.938;2024-02-26T07:02:13;13.03;;;12.43;;
7587;SDS011;3835;48.850;8.938;2024-02-26T07:04:41;14.33;;;13.53;;
7587;SDS011;3835;48.850;8.938;2024-02-26T07:07:08;13.40;;;12.70;;
7587;SDS011;3835;48.850;8.938;2024-02-26T07:09:35;13.17;;;12.37;;
7587;SDS011;3835;48.850;8.938;2024-02-26T07:12:02;11.53;;;11.03;;
7587;SDS011;3835;48.850;8.938;2024-02-26T07:14:31;13.17;;;12.47;;
7587;SDS011;3835;48.850;8.938;2024-02-26T07:16:58;10.63;;;10.13;;
7587;SDS011;3835;48.850;8.938;2024-02-26T07:19:25;11.47;;;10.97;;
7587;SDS011;3835;48.850;8.938;2024-02-26T07:21:52;12.73;;;12.23;;
7587;SDS011;3835;48.850;8.938;2024-02-26T07:24:19;11.47;;;10.90;;
7587;SDS011;3835;48.850;8.938;2024-02-26T07:26:46;11.93;;;11.43;;
7587;SDS011;3835;48.850;8.938;2024-02-26T07:29:12;13.10;;;12.30;;
7587;SDS011;3835;48.850;8.938;2024-02-26T07:31:41;13.10;;;12.50;;
7587;SDS011;3835;48.850;8.938;2024-02-26T07:34:07;12.50;;;11.87;;
7587;SDS011;3835;48.850;8.938;2024-02-26T07:36:34;12.00;;;11.50;;
7587;SDS011;3835;48.850;8.938;2024-02-26T07:39:01;11.73;;;11.23;;
7587;SDS011;3835;48.850;8.938;2024-02-26T07:41:28;16.73;;;15.17;;
7587;SDS011;3835;48.850;8.938;2024-02-26T07:43:55;15.00;;;13.90;;
7587;SDS011;3835;48.850;8.938;2024-02-26T07:46:21;12.27;;;11.57;;
7587;SDS011;3835;48.850;8.938;2024-02-26T07:48:50;12.57;;;11.97;;
7587;SDS011;3835;48.850;8.938;2024-02-26T07:51:16;14.13;;;13.23;;
7587;SDS011;3835;48.850;8.938;2024-02-26T07:53:44;16.27;;;15.03;;
7587;SDS011;3835;48.850;8.938;2024-02-26T07:56:11;14.67;;;13.83;;
7587;SDS011;3835;48.850;8.938;2024-02-26T07:58:37;15.43;;;14.53;;
7587;SDS011;3835;48.850;8.938;2024-02-26T08:01:04;16.03;;;15.20;;
7587;SDS011;3835;48.850;8.938;2024-02-26T08:03:31;17.00;;;16.00;;
7587;SDS011;3835;48.850;8.938;2024-02-26T08:05:59;15.73;;;14.87;;
7587;SDS011;3835;48.850;8.938;2024-02-26T08:08:26;15.70;;;14.53;;
7587;SDS011;3835;48.850;8.938;2024-02-26T08:10:53;20.93;;;19.00;;
7587;SDS011;3835;48.850;8.938;2024-02-26T08:13:20;18.60;;;17.07;;
7587;SDS011;3835;48.850;8.938;2024-02-26T08:15:46;16.97;;;15.47;;
7587;SDS011;3835;48.850;8.938;2024-02-26T08:18:13;15.77;;;14.73;;
7587;SDS011;3835;48.850;8.938;2024-02-26T08:20:41;15.57;;;14.57;;
7587;SDS011;3835;48.850;8.938;2024-02-26T08:23:09;12.57;;;11.87;;
7587;SDS011;3835;48.850;8.938;2024-02-26T08:25:36;13.37;;;12.67;;
7587;SDS011;3835;48.850;8.938;2024-02-26T08:28:03;13.23;;;12.53;;
7587;SDS011;3835;48.850;8.938;2024-02-26T08:30:30;12.77;;;11.87;;
7587;SDS011;3835;48.850;8.938;2024-02-26T08:32:57;11.17;;;10.60;;
7587;SDS011;3835;48.850;8.938;2024-02-26T08:35:24;12.13;;;11.53;;
7587;SDS011;3835;48.850;8.938;2024-02-26T08:37:51;11.03;;;10.53;;
7587;SDS011;3835;48.850;8.938;2024-02-26T08:40:19;12.57;;;11.67;;
7587;SDS011;3835;48.850;8.938;2024-02-26T08:42:46;13.23;;;12.63;;
7587;SDS011;3835;48.850;8.938;2024-02-26T08:45:13;11.97;;;11.43;;
7587;SDS011;3835;48.850;8.938;2024-02-26T08:47:40;12.07;;;11.57;;
7587;SDS011;3835;48.850;8.938;2024-02-26T08:50:07;11.53;;;11.03;;
7587;SDS011;3835;48.850;8.938;2024-02-26T08:52:37;13.17;;;12.57;;
7587;SDS011;3835;48.850;8.938;2024-02-26T08:55:04;13.67;;;13.07;;
7587;SDS011;3835;48.850;8.938;2024-02-26T08:57:33;14.07;;;13.37;;
7587;SDS011;3835;48.850;8.938;2024-02-26T08:59:59;14.57;;;13.90;;
7587;SDS011;3835;48.850;8.938;2024-02-26T09:02:26;11.93;;;11.43;;
7587;SDS011;3835;48.850;8.938;2024-02-26T09:04:53;11.93;;;11.33;;
7587;SDS011;3835;48.850;8.938;2024-02-26T09:07:20;16.70;;;15.90;;
7587;SDS011;3835;48.850;8.938;2024-02-26T09:09:47;16.03;;;15.37;;
7587;SDS011;3835;48.850;8.938;2024-02-26T09:12:14;12.77;;;12.13;;
7587;SDS011;3835;48.850;8.938;2024-02-26T09:14:43;13.83;;;13.13;;
7587;SDS011;3835;48.850;8.938;2024-02-26T09:17:09;12.57;;;11.97;;
7587;SDS011;3835;48.850;8.938;2024-02-26T09:19:36;13.87;;;13.07;;
7587;SDS011;3835;48.850;8.938;2024-02-26T09:22:03;12.67;;;11.97;;
7587;SDS011;3835;48.850;8.938;2024-02-26T09:24:30;14.90;;;14.10;;
7587;SDS011;3835;48.850;8.938;2024-02-26T09:26:57;13.30;;;12.50;;
7587;SDS011;3835;48.850;8.938;2024-02-26T09:29:24;13.70;;;12.90;;
7587;SDS011;3835;48.850;8.938;2024-02-26T09:31:53;14.30;;;13.20;;
7587;SDS011;3835;48.850;8.938;2024-02-26T09:34:20;13.37;;;12.53;;
7587;SDS011;3835;48.850;8.938;2024-02-26T09:36:47;14.13;;;13.43;;
7587;SDS011;3835;48.850;8.938;2024-02-26T09:39:14;13.60;;;12.53;;
7587;SDS011;3835;48.850;8.938;2024-02-26T09:41:46;15.57;;;14.47;;
7587;SDS011;3835;48.850;8.938;2024-02-26T09:44:13;13.37;;;12.50;;
7587;SDS011;3835;48.850;8.938;2024-02-26T09:46:44;14.63;;;13.83;;
7587;SDS011;3835;48.850;8.938;2024-02-26T09:49:13;14.40;;;13.60;;
7587;SDS011;3835;48.850;8.938;2024-02-26T09:51:41;14.23;;;13.33;;
7587;SDS011;3835;48.850;8.938;2024-02-26T09:54:09;15.17;;;13.83;;
7587;SDS011;3835;48.850;8.938;2024-02-26T09:56:36;16.20;;;15.27;;
7587;SDS011;3835;48.850;8.938;2024-02-26T09:59:05;15.57;;;14.37;;
7587;SDS011;3835;48.850;8.938;2024-02-26T10:01:37;15.00;;;13.43;;
7587;SDS011;3835;48.850;8.938;2024-02-26T10:04:05;15.07;;;14.27;;
7587;SDS011;3835;48.850;8.938;2024-02-26T10:06:36;14.10;;;13.17;;
7587;SDS011;3835;48.850;8.938;2024-02-26T10:09:03;12.87;;;12.20;;
7587;SDS011;3835;48.850;8.938;2024-02-26T10:11:32;13.73;;;12.73;;
7587;SDS011;3835;48.850;8.938;2024-02-26T10:13:59;13.13;;;12.43;;
7587;SDS011;3835;48.850;8.938;2024-02-26T10:16:26;13.63;;;12.83;;
7587;SDS011;3835;48.850;8.938;2024-02-26T10:18:53;12.90;;;12.20;;
7587;SDS011;3835;48.850;8.938;2024-02-26T10:21:21;13.80;;;13.10;;
7587;SDS011;3835;48.850;8.938;2024-02-26T10:23:50;13.57;;;12.77;;
7587;SDS011;3835;48.850;8.938;2024-02-26T10:26:17;14.33;;;13.53;;
7587;SDS011;3835;48.850;8.938;2024-02-26T10:28:45;13.10;;;12.30;;
7587;SDS011;3835;48.850;8.938;2024-02-26T10:31:13;14.60;;;13.60;;
7587;SDS011;3835;48.850;8.938;2024-02-26T10:33:40;13.27;;;12.37;;
7587;SDS011;3835;48.850;8.938;2024-02-26T10:36:08;14.10;;;13.30;;
7587;SDS011;3835;48.850;8.938;2024-02-26T10:38:36;14.27;;;13.33;;
7587;SDS011;3835;48.850;8.938;2024-02-26T10:41:04;14.83;;;13.63;;
7587;SDS011;3835;48.850;8.938;2024-02-26T10:43:33;14.73;;;13.57;;
7587;SDS011;3835;48.850;8.938;2024-02-26T10:46:00;16.27;;;14.97;;
7587;SDS011;3835;48.850;8.938;2024-02-26T10:48:27;14.20;;;13.03;;
7587;SDS011;3835;48.850;8.938;2024-02-26T10:50:54;13.50;;;12.67;;
7587;SDS011;3835;48.850;8.938;2024-02-26T10:53:22;13.63;;;12.83;;
7587;SDS011;3835;48.850;8.938;2024-02-26T10:55:52;17.20;;;16.03;;
7587;SDS011;3835;48.850;8.938;2024-02-26T10:58:24;14.20;;;13.23;;
7587;SDS011;3835;48.850;8.938;2024-02-26T11:00:52;14.00;;;12.67;;
7587;SDS011;3835;48.850;8.938;2024-02-26T11:03:19;14.60;;;13.60;;
7587;SDS011;3835;48.850;8.938;2024-02-26T11:05:48;13.13;;;12.23;;
7587;SDS011;3835;48.850;8.938;2024-02-26T11:08:15;13.17;;;11.83;;
7587;SDS011;3835;48.850;8.938;2024-02-26T11:10:44;13.43;;;12.37;;
7587;SDS011;3835;48.850;8.938;2024-02-26T11:13:14;13.63;;;12.83;;
7587;SDS011;3835;48.850;8.938;2024-02-26T11:15:45;11.93;;;11.23;;
7587;SDS011;3835;48.850;8.938;2024-02-26T11:18:13;12.87;;;12.27;;
7587;SDS011;3835;48.850;8.938;2024-02-26T11:20:41;12.37;;;11.67;;
7587;SDS011;3835;48.850;8.938;2024-02-26T11:23:09;12.47;;;11.77;;
7587;SDS011;3835;48.850;8.938;2024-02-26T11:25:36;16.40;;;15.63;;
7587;SDS011;3835;48.850;8.938;2024-02-26T11:28:05;13.60;;;12.80;;
7587;SDS011;3835;48.850;8.938;2024-02-26T11:30:35;12.67;;;11.97;;
7587;SDS011;3835;48.850;8.938;2024-02-26T11:33:08;12.47;;;11.87;;
7587;SDS011;3835;48.850;8.938;2024-02-26T11:35:37;12.50;;;11.80;;
7587;SDS011;3835;48.850;8.938;2024-02-26T11:38:05;12.40;;;11.80;;
7587;SDS011;3835;48.850;8.938;2024-02-26T11:40:33;12.70;;;12.00;;
7587;SDS011;3835;48.850;8.938;2024-02-26T11:43:04;12.50;;;11.90;;
7587;SDS011;3835;48.850;8.938;2024-02-26T11:45:50;12.47;;;11.77;;
7587;SDS011;3835;48.850;8.938;2024-02-26T11:48:22;12.83;;;12.03;;
7587;SDS011;3835;48.850;8.938;2024-02-26T11:50:52;12.43;;;11.83;;
7587;SDS011;3835;48.850;8.938;2024-02-26T11:53:20;12.87;;;12.13;;
7587;SDS011;3835;48.850;8.938;2024-02-26T11:58:40;13.60;;;12.57;;
7587;SDS011;3835;48.850;8.938;2024-02-26T12:04:11;14.23;;;13.43;;
7587;SDS011;3835;48.850;8.938;2024-02-26T12:06:40;12.70;;;12.10;;
7587;SDS011;3835;48.850;8.938;2024-02-26T12:09:09;13.00;;;12.40;;
7587;SDS011;3835;48.850;8.938;2024-02-26T12:11:37;12.27;;;11.67;;
7587;SDS011;3835;48.850;8.938;2024-02-26T12:14:05;12.43;;;11.73;;
7587;SDS011;3835;48.850;8.938;2024-02-26T12:16:36;12.97;;;12.37;;
7587;SDS011;3835;48.850;8.938;2024-02-26T12:19:04;12.67;;;11.87;;
7587;SDS011;3835;48.850;8.938;2024-02-26T12:21:34;11.77;;;11.17;;
7587;SDS011;3835;48.850;8.938;2024-02-26T12:24:11;11.87;;;11.27;;
7587;SDS011;3835;48.850;8.938;2024-02-26T12:26:39;12.40;;;11.53;;
7587;SDS011;3835;48.850;8.938;2024-02-26T12:29:06;11.73;;;11.13;;
7587;SDS011;3835;48.850;8.938;2024-02-26T12:31:34;12.17;;;11.37;;
7587;SDS011;3835;48.850;8.938;2024-02-26T12:34:03;11.70;;;11.10;;
7587;SDS011;3835;48.850;8.938;2024-02-26T12:36:31;12.73;;;12.23;;
7587;SDS011;3835;48.850;8.938;2024-02-26T12:39:01;13.57;;;12.87;;
7587;SDS011;3835;48.850;8.938;2024-02-26T12:41:28;11.00;;;10.40;;
7587;SDS011;3835;48.850;8.938;2024-02-26T12:43:55;12.70;;;12.00;;
7587;SDS011;3835;48.850;8.938;2024-02-26T12:46:22;12.97;;;12.37;;
7587;SDS011;3835;48.850;8.938;2024-02-26T12:48:49;12.63;;;11.93;;
7587;SDS011;3835;48.850;8.938;2024-02-26T12:51:16;11.73;;;11.17;;
7587;SDS011;3835;48.850;8.938;2024-02-26T12:53:44;12.03;;;11.23;;
7587;SDS011;3835;48.850;8.938;2024-02-26T12:56:13;12.23;;;11.63;;
7587;SDS011;3835;48.850;8.938;2024-02-26T12:58:40;13.47;;;12.67;;
7587;SDS011;3835;48.850;8.938;2024-02-26T13:01:07;11.87;;;11.30;;
7587;SDS011;3835;48.850;8.938;2024-02-26T13:03:41;13.70;;;13.10;;
7587;SDS011;3835;48.850;8.938;2024-02-26T13:06:08;12.90;;;11.77;;
7587;SDS011;3835;48.850;8.938;2024-02-26T13:08:36;12.77;;;12.00;;
7587;SDS011;3835;48.850;8.938;2024-02-26T13:11:03;12.07;;;11.53;;
7587;SDS011;3835;48.850;8.938;2024-02-26T13:13:32;13.30;;;12.60;;
7587;SDS011;3835;48.850;8.938;2024-02-26T13:16:02;12.63;;;12.10;;
7587;SDS011;3835;48.850;8.938;2024-02-26T13:18:31;11.90;;;11.40;;
7587;SDS011;3835;48.850;8.938;2024-02-26T13:21:11;12.47;;;11.80;;
7587;SDS011;3835;48.850;8.938;2024-02-26T13:23:40;12.20;;;11.60;;
7587;SDS011;3835;48.850;8.938;2024-02-26T13:26:07;12.87;;;12.17;;
7587;SDS011;3835;48.850;8.938;2024-02-26T13:28:36;11.87;;;11.20;;
7587;SDS011;3835;48.850;8.938;2024-02-26T13:31:03;11.73;;;11.13;;
7587;SDS011;3835;48.850;8.938;2024-02-26T13:33:32;12.00;;;11.43;;
7587;SDS011;3835;48.850;8.938;2024-02-26T13:36:00;11.03;;;10.53;;
7587;SDS011;3835;48.850;8.938;2024-02-26T13:38:27;12.83;;;12.33;;
7587;SDS011;3835;48.850;8.938;2024-02-26T13:40:54;11.13;;;10.70;;
7587;SDS011;3835;48.850;8.938;2024-02-26T13:43:21;10.77;;;10.17;;
7587;SDS011;3835;48.850;8.938;2024-02-26T13:45:49;11.63;;;11.20;;
7587;SDS011;3835;48.850;8.938;2024-02-26T13:48:16;11.40;;;10.90;;
7587;SDS011;3835;48.850;8.938;2024-02-26T13:50:43;11.50;;;11.00;;
7587;SDS011;3835;48.850;8.938;2024-02-26T13:53:10;11.83;;;11.27;;
7587;SDS011;3835;48.850;8.938;2024-02-26T13:55:37;12.47;;;11.87;;
7587;SDS011;3835;48.850;8.938;2024-02-26T13:58:05;11.20;;;10.80;;
7587;SDS011;3835;48.850;8.938;2024-02-26T14:00:32;12.13;;;11.60;;
7587;SDS011;3835;48.850;8.938;2024-02-26T14:03:01;11.80;;;11.17;;
7587;SDS011;3835;48.850;8.938;2024-02-26T14:05:28;11.83;;;11.37;;
7587;SDS011;3835;48.850;8.938;2024-02-26T14:07:55;11.77;;;11.27;;
7587;SDS011;3835;48.850;8.938;2024-02-26T14:10:22;12.77;;;12.27;;
7587;SDS011;3835;48.850;8.938;2024-02-26T14:12:49;12.67;;;12.10;;
7587;SDS011;3835;48.850;8.938;2024-02-26T14:15:16;11.60;;;11.10;;
7587;SDS011;3835;48.850;8.938;2024-02-26T14:17:43;11.03;;;10.53;;
7587;SDS011;3835;48.850;8.938;2024-02-26T14:20:12;10.73;;;10.23;;
7587;SDS011;3835;48.850;8.938;2024-02-26T14:22:39;12.30;;;11.80;;
7587;SDS011;3835;48.850;8.938;2024-02-26T14:25:06;11.87;;;11.37;;
7587;SDS011;3835;48.850;8.938;2024-02-26T14:27:35;11.30;;;10.87;;
7587;SDS011;3835;48.850;8.938;2024-02-26T14:30:02;11.23;;;10.83;;
7587;SDS011;3835;48.850;8.938;2024-02-26T14:32:29;11.00;;;10.60;;
7587;SDS011;3835;48.850;8.938;2024-02-26T14:35:00;11.23;;;10.83;;
7587;SDS011;3835;48.850;8.938;2024-02-26T14:37:29;12.40;;;11.90;;
7587;SDS011;3835;48.850;8.938;2024-02-26T14:39:56;10.50;;;10.10;;
7587;SDS011;3835;48.850;8.938;2024-02-26T14:42:22;11.80;;;11.33;;
7587;SDS011;3835;48.850;8.938;2024-02-26T14:44:49;10.80;;;10.40;;
7587;SDS011;3835;48.850;8.938;2024-02-26T14:47:16;12.33;;;11.83;;
7587;SDS011;3835;48.850;8.938;2024-02-26T14:49:43;11.53;;;10.93;;
7587;SDS011;3835;48.850;8.938;2024-02-26T14:52:12;12.27;;;11.77;;
7587;SDS011;3835;48.850;8.938;2024-02-26T14:54:41;11.43;;;10.93;;
7587;SDS011;3835;48.850;8.938;2024-02-26T14:57:08;10.30;;;9.90;;
7587;SDS011;3835;48.850;8.938;2024-02-26T14:59:35;11.13;;;10.63;;